sensor_id;sensor_type;location;lat;lon;timestamp;pressure;altitude;pressure_sealevel;temperature;humidity
59419;BME280;45224;50.904;6.038;2023-09-12T00:00:07;99547.69;;;22.12;80.35
59419;BME280;45224;50.904;6.038;2023-09-12T00:01:43;99574.63;;;22.17;81.53
59419;BME280;45224;50.904;6.038;2023-09-12T00:03:14;99573.72;;;22.18;82.05
59419;BME280;45224;50.904;6.038;2023-09-12T00:04:45;99564.91;;;22.19;81.10
59419;BME280;45224;50.904;6.038;2023-09-12T00:06:15;99564.91;;;22.19;80.87
59419;BME280;45224;50.904;6.038;2023-09-12T00:07:46;99572.00;;;22.17;80.50
59419;BME280;45224;50.904;6.038;2023-09-12T00:09:16;99570.69;;;22.08;81.22
59419;BME280;45224;50.904;6.038;2023-09-12T00:10:47;99564.41;;;22.11;80.87
59419;BME280;45224;50.904;6.038;2023-09-12T00:12:17;99567.69;;;21.98;81.49
59419;BME280;45224;50.904;6.038;2023-09-12T00:13:47;99555.28;;;22.00;81.58
59419;BME280;45224;50.904;6.038;2023-09-12T00:15:18;99557.94;;;22.00;81.40
59419;BME280;45224;50.904;6.038;2023-09-12T00:16:49;99560.69;;;21.80;80.84
59419;BME280;45224;50.904;6.038;2023-09-12T00:18:23;99566.34;;;21.89;80.42
59419;BME280;45224;50.904;6.038;2023-09-12T00:19:53;99560.88;;;21.94;81.23
59419;BME280;45224;50.904;6.038;2023-09-12T00:21:24;99563.34;;;21.97;80.44
59419;BME280;45224;50.904;6.038;2023-09-12T00:22:54;99552.75;;;21.99;80.35
59419;BME280;45224;50.904;6.038;2023-09-12T00:24:25;99561.16;;;21.88;80.52
59419;BME280;45224;50.904;6.038;2023-09-12T00:25:57;99557.53;;;21.91;80.31
59419;BME280;45224;50.904;6.038;2023-09-12T00:27:27;99569.84;;;21.90;79.82
59419;BME280;45224;50.904;6.038;2023-09-12T00:28:58;99564.59;;;21.90;80.30
59419;BME280;45224;50.904;6.038;2023-09-12T00:30:28;99560.09;;;21.92;79.91
59419;BME280;45224;50.904;6.038;2023-09-12T00:31:59;99550.63;;;21.88;80.12
59419;BME280;45224;50.904;6.038;2023-09-12T01:09:18;99532.78;;;21.60;82.44
59419;BME280;45224;50.904;6.038;2023-09-12T01:10:50;99537.81;;;21.64;82.57
59419;BME280;45224;50.904;6.038;2023-09-12T01:12:23;99542.13;;;21.65;83.69
59419;BME280;45224;50.904;6.038;2023-09-12T01:13:54;99544.75;;;21.65;83.18
59419;BME280;45224;50.904;6.038;2023-09-12T01:15:25;99547.38;;;21.65;82.68
59419;BME280;45224;50.904;6.038;2023-09-12T01:16:57;99549.31;;;21.62;82.73
59419;BME280;45224;50.904;6.038;2023-09-12T01:18:27;99564.41;;;21.58;82.87
59419;BME280;45224;50.904;6.038;2023-09-12T01:19:59;99560.41;;;21.51;83.27
59419;BME280;45224;50.904;6.038;2023-09-12T01:23:32;99561.41;;;21.47;84.59
59419;BME280;45224;50.904;6.038;2023-09-12T01:25:38;99546.47;;;21.47;84.63
59419;BME280;45224;50.904;6.038;2023-09-12T01:28:45;99510.97;;;21.39;85.31
59419;BME280;45224;50.904;6.038;2023-09-12T01:30:18;99508.81;;;21.47;85.42
59419;BME280;45224;50.904;6.038;2023-09-12T01:31:50;99493.50;;;21.38;85.51
59419;BME280;45224;50.904;6.038;2023-09-12T01:33:22;99482.13;;;21.37;85.48
59419;BME280;45224;50.904;6.038;2023-09-12T01:34:53;99480.56;;;21.33;85.74
59419;BME280;45224;50.904;6.038;2023-09-12T01:36:23;99472.75;;;21.31;85.56
59419;BME280;45224;50.904;6.038;2023-09-12T01:37:54;99484.50;;;21.24;86.37
59419;BME280;45224;50.904;6.038;2023-09-12T01:39:25;99487.75;;;21.29;86.49
59419;BME280;45224;50.904;6.038;2023-09-12T01:40:55;99488.72;;;21.28;87.58
59419;BME280;45224;50.904;6.038;2023-09-12T01:42:30;99493.78;;;21.31;86.26
59419;BME280;45224;50.904;6.038;2023-09-12T01:44:02;99493.97;;;21.28;86.23
59419;BME280;45224;50.904;6.038;2023-09-12T01:45:34;99493.78;;;21.31;86.78
59419;BME280;45224;50.904;6.038;2023-09-12T01:47:05;99500.75;;;21.32;86.52
59419;BME280;45224;50.904;6.038;2023-09-12T01:48:37;99495.66;;;21.29;86.74
59419;BME280;45224;50.904;6.038;2023-09-12T01:50:09;99499.31;;;21.27;86.48
59419;BME280;45224;50.904;6.038;2023-09-12T01:51:43;99500.38;;;21.23;86.49
59419;BME280;45224;50.904;6.038;2023-09-12T01:53:13;99500.13;;;21.27;86.32
59419;BME280;45224;50.904;6.038;2023-09-12T01:54:46;99494.63;;;21.14;86.49
59419;BME280;45224;50.904;6.038;2023-09-12T01:56:19;99508.31;;;21.21;86.78
59419;BME280;45224;50.904;6.038;2023-09-12T01:57:50;99511.72;;;21.23;87.45
59419;BME280;45224;50.904;6.038;2023-09-12T01:59:21;99512.59;;;21.24;87.55
59419;BME280;45224;50.904;6.038;2023-09-12T02:00:52;99512.53;;;21.25;87.00
59419;BME280;45224;50.904;6.038;2023-09-12T02:02:24;99511.44;;;21.29;86.65
59419;BME280;45224;50.904;6.038;2023-09-12T02:03:54;99514.81;;;21.31;87.01
59419;BME280;45224;50.904;6.038;2023-09-12T02:05:26;99508.78;;;21.29;87.32
59419;BME280;45224;50.904;6.038;2023-09-12T02:06:56;99504.47;;;21.28;87.72
59419;BME280;45224;50.904;6.038;2023-09-12T02:08:28;99507.00;;;21.30;86.81
59419;BME280;45224;50.904;6.038;2023-09-12T02:09:59;99501.94;;;21.27;87.02
59419;BME280;45224;50.904;6.038;2023-09-12T02:11:30;99507.19;;;21.27;87.69
59419;BME280;45224;50.904;6.038;2023-09-12T02:13:01;99516.06;;;21.24;87.29
59419;BME280;45224;50.904;6.038;2023-09-12T02:14:31;99511.88;;;21.20;87.49
59419;BME280;45224;50.904;6.038;2023-09-12T02:16:01;99520.69;;;21.19;87.98
59419;BME280;45224;50.904;6.038;2023-09-12T02:17:34;99513.72;;;21.18;88.08
59419;BME280;45224;50.904;6.038;2023-09-12T02:19:05;99512.03;;;21.17;88.48
59419;BME280;45224;50.904;6.038;2023-09-12T02:20:39;99511.16;;;21.16;88.41
59419;BME280;45224;50.904;6.038;2023-09-12T02:22:09;99511.25;;;21.15;88.55
59419;BME280;45224;50.904;6.038;2023-09-12T02:23:40;99501.69;;;21.14;88.44
59419;BME280;45224;50.904;6.038;2023-09-12T02:25:11;99505.13;;;21.14;88.28
59419;BME280;45224;50.904;6.038;2023-09-12T02:26:41;99495.47;;;21.15;nan
59419;BME280;45224;50.904;6.038;2023-09-12T02:28:12;99499.75;;;21.18;87.34
59419;BME280;45224;50.904;6.038;2023-09-12T02:29:42;99508.47;;;21.18;87.78
59419;BME280;45224;50.904;6.038;2023-09-12T02:31:13;99510.31;;;21.16;88.08
59419;BME280;45224;50.904;6.038;2023-09-12T02:32:44;99508.91;;;21.09;87.83
59419;BME280;45224;50.904;6.038;2023-09-12T02:34:14;99522.22;;;21.06;87.54
59419;BME280;45224;50.904;6.038;2023-09-12T02:35:45;99517.94;;;21.03;87.86
59419;BME280;45224;50.904;6.038;2023-09-12T02:37:15;99511.91;;;21.01;88.38
59419;BME280;45224;50.904;6.038;2023-09-12T02:38:46;99500.69;;;20.97;87.97
59419;BME280;45224;50.904;6.038;2023-09-12T02:40:16;99499.63;;;21.02;88.23
59419;BME280;45224;50.904;6.038;2023-09-12T02:41:48;99493.59;;;21.00;88.82
59419;BME280;45224;50.904;6.038;2023-09-12T02:43:19;99483.09;;;21.00;87.98
59419;BME280;45224;50.904;6.038;2023-09-12T02:44:49;99477.34;;;20.91;88.55
59419;BME280;45224;50.904;6.038;2023-09-12T02:46:19;99467.53;;;20.95;88.74
59419;BME280;45224;50.904;6.038;2023-09-12T02:47:50;99469.16;;;20.97;87.83
59419;BME280;45224;50.904;6.038;2023-09-12T02:49:20;99474.31;;;20.99;87.74
59419;BME280;45224;50.904;6.038;2023-09-12T02:50:51;99472.84;;;20.93;87.65
59419;BME280;45224;50.904;6.038;2023-09-12T02:52:21;99475.50;;;20.93;88.15
59419;BME280;45224;50.904;6.038;2023-09-12T02:53:52;99471.16;;;20.92;88.31
59419;BME280;45224;50.904;6.038;2023-09-12T02:55:23;99472.09;;;20.91;88.65
59419;BME280;45224;50.904;6.038;2023-09-12T02:56:53;99474.53;;;20.94;88.81
59419;BME280;45224;50.904;6.038;2023-09-12T02:58:24;99469.47;;;20.91;88.58
59419;BME280;45224;50.904;6.038;2023-09-12T02:59:54;99461.72;;;20.88;88.75
59419;BME280;45224;50.904;6.038;2023-09-12T03:01:24;99467.06;;;20.87;89.22
59419;BME280;45224;50.904;6.038;2023-09-12T03:02:58;99463.47;;;20.88;89.18
59419;BME280;45224;50.904;6.038;2023-09-12T03:04:29;99466.75;;;20.93;88.83
59419;BME280;45224;50.904;6.038;2023-09-12T03:06:01;99455.38;;;20.92;89.32
59419;BME280;45224;50.904;6.038;2023-09-12T03:07:33;99455.66;;;20.86;89.24
59419;BME280;45224;50.904;6.038;2023-09-12T03:09:03;99450.56;;;20.83;89.65
59419;BME280;45224;50.904;6.038;2023-09-12T03:10:34;99445.31;;;20.83;89.38
59419;BME280;45224;50.904;6.038;2023-09-12T03:12:05;99454.00;;;20.85;89.76
59419;BME280;45224;50.904;6.038;2023-09-12T03:13:40;99461.78;;;20.87;89.51
59419;BME280;45224;50.904;6.038;2023-09-12T03:15:10;99459.31;;;20.84;89.28
59419;BME280;45224;50.904;6.038;2023-09-12T03:16:41;99463.63;;;20.85;90.01
59419;BME280;45224;50.904;6.038;2023-09-12T03:18:12;99473.44;;;20.81;89.98
59419;BME280;45224;50.904;6.038;2023-09-12T03:19:42;99468.03;;;20.84;90.04
59419;BME280;45224;50.904;6.038;2023-09-12T03:21:12;99469.06;;;20.82;89.77
59419;BME280;45224;50.904;6.038;2023-09-12T03:22:43;99471.56;;;20.83;89.81
59419;BME280;45224;50.904;6.038;2023-09-12T03:24:15;99466.31;;;20.83;89.75
59419;BME280;45224;50.904;6.038;2023-09-12T03:25:48;99453.44;;;20.78;89.54
59419;BME280;45224;50.904;6.038;2023-09-12T03:27:19;99456.00;;;20.80;89.44
59419;BME280;45224;50.904;6.038;2023-09-12T03:28:50;99452.69;;;20.75;90.15
59419;BME280;45224;50.904;6.038;2023-09-12T03:30:21;99454.41;;;20.76;90.25
59419;BME280;45224;50.904;6.038;2023-09-12T03:31:52;99452.56;;;20.78;91.00
59419;BME280;45224;50.904;6.038;2023-09-12T03:33:22;99468.25;;;20.79;91.10
59419;BME280;45224;50.904;6.038;2023-09-12T03:34:53;99459.59;;;20.77;90.68
59419;BME280;45224;50.904;6.038;2023-09-12T03:36:23;99460.38;;;20.79;90.69
59419;BME280;45224;50.904;6.038;2023-09-12T03:37:54;99456.91;;;20.79;90.59
59419;BME280;45224;50.904;6.038;2023-09-12T03:39:24;99473.38;;;20.83;90.33
59419;BME280;45224;50.904;6.038;2023-09-12T03:40:55;99472.38;;;20.85;90.64
59419;BME280;45224;50.904;6.038;2023-09-12T03:42:25;99464.50;;;20.85;90.17
59419;BME280;45224;50.904;6.038;2023-09-12T03:43:56;99459.38;;;20.82;89.99
59419;BME280;45224;50.904;6.038;2023-09-12T03:45:27;99447.16;;;20.81;90.69
59419;BME280;45224;50.904;6.038;2023-09-12T03:46:57;99450.41;;;20.86;90.63
59419;BME280;45224;50.904;6.038;2023-09-12T03:48:29;99446.19;;;20.84;90.52
59419;BME280;45224;50.904;6.038;2023-09-12T03:50:03;99448.25;;;20.77;91.53
59419;BME280;45224;50.904;6.038;2023-09-12T03:51:34;99449.16;;;20.76;91.41
59419;BME280;45224;50.904;6.038;2023-09-12T03:53:05;99460.59;;;20.75;91.27
59419;BME280;45224;50.904;6.038;2023-09-12T03:54:35;99472.72;;;20.77;91.13
59419;BME280;45224;50.904;6.038;2023-09-12T03:56:06;99468.31;;;20.78;90.72
59419;BME280;45224;50.904;6.038;2023-09-12T03:57:36;99463.06;;;20.78;90.96
59419;BME280;45224;50.904;6.038;2023-09-12T03:59:07;99465.75;;;20.76;91.21
59419;BME280;45224;50.904;6.038;2023-09-12T04:00:37;99468.47;;;20.75;91.02
59419;BME280;45224;50.904;6.038;2023-09-12T04:02:08;99470.19;;;20.76;90.96
59419;BME280;45224;50.904;6.038;2023-09-12T04:03:39;99467.56;;;20.76;91.61
59419;BME280;45224;50.904;6.038;2023-09-12T04:05:09;99464.94;;;20.76;91.13
59419;BME280;45224;50.904;6.038;2023-09-12T04:06:40;99460.66;;;20.73;91.25
59419;BME280;45224;50.904;6.038;2023-09-12T04:08:11;99466.78;;;20.74;91.55
59419;BME280;45224;50.904;6.038;2023-09-12T04:09:42;99465.97;;;20.72;91.55
59419;BME280;45224;50.904;6.038;2023-09-12T04:11:12;99473.16;;;20.68;91.73
59419;BME280;45224;50.904;6.038;2023-09-12T04:12:43;99482.81;;;20.68;91.82
59419;BME280;45224;50.904;6.038;2023-09-12T04:14:14;99482.06;;;20.66;92.16
59419;BME280;45224;50.904;6.038;2023-09-12T04:15:45;99487.31;;;20.66;92.29
59419;BME280;45224;50.904;6.038;2023-09-12T04:17:15;99484.75;;;20.64;92.34
59419;BME280;45224;50.904;6.038;2023-09-12T04:18:46;99498.72;;;20.65;92.19
59419;BME280;45224;50.904;6.038;2023-09-12T04:20:16;99496.13;;;20.63;92.81
59419;BME280;45224;50.904;6.038;2023-09-12T04:21:47;99492.63;;;20.64;93.40
59419;BME280;45224;50.904;6.038;2023-09-12T04:23:17;99496.03;;;20.66;93.34
59419;BME280;45224;50.904;6.038;2023-09-12T04:24:47;99485.63;;;20.63;93.35
59419;BME280;45224;50.904;6.038;2023-09-12T04:26:18;99481.25;;;20.64;93.35
59419;BME280;45224;50.904;6.038;2023-09-12T04:27:49;99475.25;;;20.60;93.98
59419;BME280;45224;50.904;6.038;2023-09-12T04:29:19;99467.88;;;20.49;94.89
59419;BME280;45224;50.904;6.038;2023-09-12T04:30:49;99468.03;;;20.46;95.03
59419;BME280;45224;50.904;6.038;2023-09-12T04:32:20;99466.19;;;20.48;94.66
59419;BME280;45224;50.904;6.038;2023-09-12T04:33:54;99468.94;;;20.45;95.08
59419;BME280;45224;50.904;6.038;2023-09-12T04:35:24;99469.84;;;20.44;95.19
59419;BME280;45224;50.904;6.038;2023-09-12T04:36:55;99468.88;;;20.47;94.58
59419;BME280;45224;50.904;6.038;2023-09-12T04:38:26;99485.41;;;20.49;94.58
59419;BME280;45224;50.904;6.038;2023-09-12T04:39:57;99487.97;;;20.50;93.90
59419;BME280;45224;50.904;6.038;2023-09-12T04:41:28;99500.97;;;20.53;94.37
59419;BME280;45224;50.904;6.038;2023-09-12T04:42:58;99515.22;;;20.48;95.48
59419;BME280;45224;50.904;6.038;2023-09-12T04:44:34;99553.31;;;20.37;96.84
59419;BME280;45224;50.904;6.038;2023-09-12T04:46:05;99571.75;;;20.36;97.52
59419;BME280;45224;50.904;6.038;2023-09-12T04:47:35;99591.31;;;20.29;98.50
59419;BME280;45224;50.904;6.038;2023-09-12T04:49:06;99602.59;;;20.10;100.00
59419;BME280;45224;50.904;6.038;2023-09-12T04:50:42;99606.03;;;20.12;100.00
59419;BME280;45224;50.904;6.038;2023-09-12T04:52:13;99591.31;;;20.08;100.00
59419;BME280;45224;50.904;6.038;2023-09-12T04:53:43;99578.13;;;20.10;100.00
59419;BME280;45224;50.904;6.038;2023-09-12T04:55:14;99559.81;;;20.08;100.00
59419;BME280;45224;50.904;6.038;2023-09-12T04:56:45;99525.97;;;20.02;100.00
59419;BME280;45224;50.904;6.038;2023-09-12T04:58:15;99510.34;;;19.99;100.00
59419;BME280;45224;50.904;6.038;2023-09-12T04:59:46;99505.53;;;19.90;100.00
59419;BME280;45224;50.904;6.038;2023-09-12T05:01:16;99489.91;;;19.86;100.00
59419;BME280;45224;50.904;6.038;2023-09-12T05:02:47;99468.25;;;19.61;100.00
59419;BME280;45224;50.904;6.038;2023-09-12T05:04:17;99473.75;;;19.55;100.00
59419;BME280;45224;50.904;6.038;2023-09-12T05:05:49;99475.19;;;19.62;100.00
59419;BME280;45224;50.904;6.038;2023-09-12T05:07:22;99498.41;;;19.71;100.00
59419;BME280;45224;50.904;6.038;2023-09-12T05:08:53;99514.81;;;19.76;100.00
59419;BME280;45224;50.904;6.038;2023-09-12T05:10:23;99528.59;;;19.81;100.00
59419;BME280;45224;50.904;6.038;2023-09-12T05:11:54;99528.47;;;19.84;100.00
59419;BME280;45224;50.904;6.038;2023-09-12T05:13:24;99517.00;;;19.87;100.00
59419;BME280;45224;50.904;6.038;2023-09-12T05:14:55;99529.09;;;19.91;100.00
59419;BME280;45224;50.904;6.038;2023-09-12T05:16:25;99514.19;;;19.92;100.00
59419;BME280;45224;50.904;6.038;2023-09-12T05:17:56;99508.75;;;19.74;100.00
59419;BME280;45224;50.904;6.038;2023-09-12T05:19:26;99501.63;;;19.78;100.00
59419;BME280;45224;50.904;6.038;2023-09-12T05:20:57;99507.59;;;19.81;100.00
59419;BME280;45224;50.904;6.038;2023-09-12T05:22:28;99501.31;;;19.85;100.00
59419;BME280;45224;50.904;6.038;2023-09-12T05:23:59;99498.69;;;19.85;100.00
59419;BME280;45224;50.904;6.038;2023-09-12T05:25:29;99498.44;;;19.92;100.00
59419;BME280;45224;50.904;6.038;2023-09-12T05:27:00;99499.16;;;19.95;100.00
59419;BME280;45224;50.904;6.038;2023-09-12T05:28:31;99501.84;;;19.94;100.00
59419;BME280;45224;50.904;6.038;2023-09-12T05:30:01;99491.34;;;19.94;100.00
59419;BME280;45224;50.904;6.038;2023-09-12T05:31:33;99492.94;;;19.98;100.00
59419;BME280;45224;50.904;6.038;2023-09-12T05:33:04;99490.88;;;20.04;100.00
59419;BME280;45224;50.904;6.038;2023-09-12T05:34:34;99485.44;;;20.09;100.00
59419;BME280;45224;50.904;6.038;2023-09-12T05:36:05;99484.50;;;20.10;100.00
59419;BME280;45224;50.904;6.038;2023-09-12T05:37:35;99487.00;;;20.13;100.00
59419;BME280;45224;50.904;6.038;2023-09-12T05:39:06;99495.94;;;20.09;100.00
59419;BME280;45224;50.904;6.038;2023-09-12T05:40:36;99498.88;;;20.01;100.00
59419;BME280;45224;50.904;6.038;2023-09-12T05:42:07;99497.88;;;20.04;100.00
59419;BME280;45224;50.904;6.038;2023-09-12T05:43:37;99491.66;;;20.06;100.00
59419;BME280;45224;50.904;6.038;2023-09-12T05:45:08;99484.00;;;20.02;100.00
59419;BME280;45224;50.904;6.038;2023-09-12T05:46:39;99485.72;;;20.03;100.00
59419;BME280;45224;50.904;6.038;2023-09-12T05:48:09;99487.38;;;20.04;100.00
59419;BME280;45224;50.904;6.038;2023-09-12T05:49:41;99485.56;;;20.06;100.00
59419;BME280;45224;50.904;6.038;2023-09-12T05:51:11;99490.81;;;20.06;100.00
59419;BME280;45224;50.904;6.038;2023-09-12T05:52:42;99482.13;;;20.04;100.00
59419;BME280;45224;50.904;6.038;2023-09-12T05:54:14;99484.50;;;20.10;100.00
59419;BME280;45224;50.904;6.038;2023-09-12T05:55:45;99479.13;;;20.13;100.00
59419;BME280;45224;50.904;6.038;2023-09-12T05:57:16;99478.16;;;20.16;100.00
59419;BME280;45224;50.904;6.038;2023-09-12T05:58:47;99479.75;;;20.18;100.00
59419;BME280;45224;50.904;6.038;2023-09-12T06:00:17;99476.22;;;20.19;100.00
59419;BME280;45224;50.904;6.038;2023-09-12T06:01:48;99470.00;;;20.22;100.00
59419;BME280;45224;50.904;6.038;2023-09-12T06:03:19;99470.56;;;20.29;100.00
59419;BME280;45224;50.904;6.038;2023-09-12T06:04:49;99474.09;;;20.28;100.00
59419;BME280;45224;50.904;6.038;2023-09-12T06:06:20;99479.09;;;20.34;100.00
59419;BME280;45224;50.904;6.038;2023-09-12T06:07:50;99475.97;;;20.25;100.00
59419;BME280;45224;50.904;6.038;2023-09-12T06:09:21;99485.56;;;20.06;100.00
59419;BME280;45224;50.904;6.038;2023-09-12T06:10:51;99486.88;;;20.16;100.00
59419;BME280;45224;50.904;6.038;2023-09-12T06:12:23;99493.69;;;20.20;100.00
59419;BME280;45224;50.904;6.038;2023-09-12T06:13:54;99484.38;;;20.13;100.00
59419;BME280;45224;50.904;6.038;2023-09-12T06:15:24;99485.16;;;20.15;100.00
59419;BME280;45224;50.904;6.038;2023-09-12T06:16:55;99483.25;;;20.19;100.00
59419;BME280;45224;50.904;6.038;2023-09-12T06:18:25;99483.31;;;20.17;100.00
59419;BME280;45224;50.904;6.038;2023-09-12T06:19:58;99478.28;;;20.13;100.00
59419;BME280;45224;50.904;6.038;2023-09-12T06:21:29;99475.59;;;20.14;100.00
59419;BME280;45224;50.904;6.038;2023-09-12T06:23:00;99480.06;;;20.12;100.00
59419;BME280;45224;50.904;6.038;2023-09-12T06:24:30;99471.13;;;20.16;100.00
59419;BME280;45224;50.904;6.038;2023-09-12T06:26:00;99472.19;;;20.12;100.00
59419;BME280;45224;50.904;6.038;2023-09-12T06:27:31;99460.09;;;20.08;100.00
59419;BME280;45224;50.904;6.038;2023-09-12T06:29:01;99464.84;;;20.00;100.00
59419;BME280;45224;50.904;6.038;2023-09-12T06:30:32;99463.56;;;19.90;100.00
59419;BME280;45224;50.904;6.038;2023-09-12T06:32:03;99473.75;;;19.96;100.00
59419;BME280;45224;50.904;6.038;2023-09-12T06:33:34;99463.00;;;20.02;100.00
59419;BME280;45224;50.904;6.038;2023-09-12T06:35:04;99461.81;;;20.09;100.00
59419;BME280;45224;50.904;6.038;2023-09-12T06:36:35;99469.25;;;20.18;100.00
59419;BME280;45224;50.904;6.038;2023-09-12T06:38:06;99472.69;;;20.20;100.00
59419;BME280;45224;50.904;6.038;2023-09-12T06:39:36;99469.13;;;20.21;100.00
59419;BME280;45224;50.904;6.038;2023-09-12T06:41:07;99472.97;;;20.14;100.00
59419;BME280;45224;50.904;6.038;2023-09-12T06:42:37;99474.38;;;20.21;100.00
59419;BME280;45224;50.904;6.038;2023-09-12T06:44:07;99476.59;;;20.31;100.00
59419;BME280;45224;50.904;6.038;2023-09-12T06:45:39;99480.63;;;20.38;100.00
59419;BME280;45224;50.904;6.038;2023-09-12T06:47:10;99477.75;;;20.44;100.00
59419;BME280;45224;50.904;6.038;2023-09-12T06:48:41;99479.31;;;20.48;100.00
59419;BME280;45224;50.904;6.038;2023-09-12T06:50:11;99470.50;;;20.49;100.00
59419;BME280;45224;50.904;6.038;2023-09-12T06:51:41;99472.13;;;20.52;100.00
59419;BME280;45224;50.904;6.038;2023-09-12T06:53:12;99471.16;;;20.54;100.00
59419;BME280;45224;50.904;6.038;2023-09-12T06:54:42;99478.53;;;20.46;100.00
59419;BME280;45224;50.904;6.038;2023-09-12T06:56:13;99487.91;;;20.52;100.00
59419;BME280;45224;50.904;6.038;2023-09-12T06:57:43;99490.31;;;20.56;100.00
59419;BME280;45224;50.904;6.038;2023-09-12T06:59:15;99496.69;;;20.51;100.00
59419;BME280;45224;50.904;6.038;2023-09-12T07:00:46;99495.34;;;20.42;100.00
59419;BME280;45224;50.904;6.038;2023-09-12T07:02:16;99491.31;;;20.35;100.00
59419;BME280;45224;50.904;6.038;2023-09-12T07:03:48;99497.91;;;20.43;100.00
59419;BME280;45224;50.904;6.038;2023-09-12T07:05:19;99505.22;;;20.37;100.00
59419;BME280;45224;50.904;6.038;2023-09-12T07:06:49;99495.94;;;20.28;100.00
59419;BME280;45224;50.904;6.038;2023-09-12T07:08:21;99498.81;;;20.42;100.00
59419;BME280;45224;50.904;6.038;2023-09-12T07:09:51;99502.44;;;20.40;100.00
59419;BME280;45224;50.904;6.038;2023-09-12T07:11:22;99508.75;;;20.36;100.00
59419;BME280;45224;50.904;6.038;2023-09-12T07:12:54;99505.44;;;20.51;100.00
59419;BME280;45224;50.904;6.038;2023-09-12T07:14:24;99510.13;;;20.45;100.00
59419;BME280;45224;50.904;6.038;2023-09-12T07:15:56;99516.56;;;20.56;100.00
59419;BME280;45224;50.904;6.038;2023-09-12T07:17:29;99511.88;;;20.63;100.00
59419;BME280;45224;50.904;6.038;2023-09-12T07:19:00;99503.56;;;20.74;100.00
59419;BME280;45224;50.904;6.038;2023-09-12T07:20:30;99510.16;;;20.83;100.00
59419;BME280;45224;50.904;6.038;2023-09-12T07:22:01;99505.53;;;20.88;100.00
59419;BME280;45224;50.904;6.038;2023-09-12T07:23:31;99515.75;;;20.75;100.00
59419;BME280;45224;50.904;6.038;2023-09-12T07:25:02;99513.41;;;20.88;100.00
59419;BME280;45224;50.904;6.038;2023-09-12T07:26:33;99518.16;;;20.79;100.00
59419;BME280;45224;50.904;6.038;2023-09-12T07:28:03;99511.34;;;20.94;100.00
59419;BME280;45224;50.904;6.038;2023-09-12T07:29:34;99512.47;;;21.08;100.00
59419;BME280;45224;50.904;6.038;2023-09-12T07:31:04;99510.31;;;21.16;100.00
59419;BME280;45224;50.904;6.038;2023-09-12T07:32:35;99506.94;;;21.14;100.00
59419;BME280;45224;50.904;6.038;2023-09-12T07:34:05;99515.28;;;21.22;100.00
59419;BME280;45224;50.904;6.038;2023-09-12T07:35:36;99515.28;;;21.22;100.00
59419;BME280;45224;50.904;6.038;2023-09-12T07:37:06;99525.19;;;21.34;100.00
59419;BME280;45224;50.904;6.038;2023-09-12T07:38:37;99519.47;;;21.26;100.00
59419;BME280;45224;50.904;6.038;2023-09-12T07:40:08;99525.19;;;21.34;100.00
59419;BME280;45224;50.904;6.038;2023-09-12T07:41:40;99523.66;;;21.49;100.00
59419;BME280;45224;50.904;6.038;2023-09-12T07:43:10;99525.72;;;21.60;100.00
59419;BME280;45224;50.904;6.038;2023-09-12T07:44:41;99520.19;;;21.47;100.00
59419;BME280;45224;50.904;6.038;2023-09-12T07:46:11;99516.84;;;21.26;100.00
59419;BME280;45224;50.904;6.038;2023-09-12T07:47:42;99522.41;;;21.38;100.00
59419;BME280;45224;50.904;6.038;2023-09-12T07:49:12;99519.78;;;21.38;100.00
59419;BME280;45224;50.904;6.038;2023-09-12T07:50:43;99523.09;;;21.24;100.00
59419;BME280;45224;50.904;6.038;2023-09-12T07:52:13;99529.97;;;21.26;100.00
59419;BME280;45224;50.904;6.038;2023-09-12T07:53:44;99531.72;;;21.45;100.00
59419;BME280;45224;50.904;6.038;2023-09-12T07:55:14;99533.16;;;21.52;100.00
59419;BME280;45224;50.904;6.038;2023-09-12T07:56:45;99541.97;;;21.51;100.00
59419;BME280;45224;50.904;6.038;2023-09-12T07:58:16;99543.22;;;21.61;100.00
59419;BME280;45224;50.904;6.038;2023-09-12T07:59:48;99541.06;;;21.69;100.00
59419;BME280;45224;50.904;6.038;2023-09-12T08:01:19;99544.59;;;21.68;100.00
59419;BME280;45224;50.904;6.038;2023-09-12T08:02:49;99548.72;;;21.38;100.00
59419;BME280;45224;50.904;6.038;2023-09-12T08:04:20;99550.91;;;21.47;100.00
59419;BME280;45224;50.904;6.038;2023-09-12T08:05:57;99545.94;;;21.41;100.00
59419;BME280;45224;50.904;6.038;2023-09-12T08:07:28;99553.19;;;21.55;100.00
59419;BME280;45224;50.904;6.038;2023-09-12T08:08:58;99551.03;;;21.63;100.00
59419;BME280;45224;50.904;6.038;2023-09-12T08:10:29;99557.91;;;21.83;100.00
59419;BME280;45224;50.904;6.038;2023-09-12T08:11:59;99567.53;;;22.01;100.00
59419;BME280;45224;50.904;6.038;2023-09-12T08:13:30;99561.09;;;22.07;98.99
59419;BME280;45224;50.904;6.038;2023-09-12T08:15:01;99563.72;;;22.24;98.83
59419;BME280;45224;50.904;6.038;2023-09-12T08:16:32;99570.78;;;22.41;98.34
59419;BME280;45224;50.904;6.038;2023-09-12T08:18:03;99569.94;;;22.57;97.58
59419;BME280;45224;50.904;6.038;2023-09-12T08:19:34;99574.09;;;22.45;94.75
59419;BME280;45224;50.904;6.038;2023-09-12T08:21:04;99572.94;;;22.33;96.76
59419;BME280;45224;50.904;6.038;2023-09-12T08:22:36;99574.25;;;22.42;97.95
59419;BME280;45224;50.904;6.038;2023-09-12T08:24:06;99573.03;;;22.65;96.90
59419;BME280;45224;50.904;6.038;2023-09-12T08:25:37;99571.16;;;22.67;96.16
59419;BME280;45224;50.904;6.038;2023-09-12T08:27:08;99575.09;;;22.76;93.57
59419;BME280;45224;50.904;6.038;2023-09-12T08:28:40;99576.53;;;22.82;93.38
59419;BME280;45224;50.904;6.038;2023-09-12T08:30:11;99576.63;;;22.80;93.31
59419;BME280;45224;50.904;6.038;2023-09-12T08:31:42;99571.81;;;22.88;92.58
59419;BME280;45224;50.904;6.038;2023-09-12T08:33:15;99578.44;;;22.95;93.00
59419;BME280;45224;50.904;6.038;2023-09-12T08:34:45;99585.38;;;22.81;92.42
59419;BME280;45224;50.904;6.038;2023-09-12T08:36:16;99592.38;;;22.97;93.12
59419;BME280;45224;50.904;6.038;2023-09-12T08:37:46;99590.63;;;23.14;92.59